釧路 の空港の天気 - METARとTAF

釧路空港 ( RJCK / KUH ) - 北海道釧路市
飛行場実況気象(Metar)
観測時間06/29 10:00 JST (06/29 01:00 UTC)
風向・風速南 4m/s
視程10km以上
天気現象
少しの雲 雲底高度 60m
気温15℃
湿度82%
気圧1014hPa
METARRJCK 290100Z 18008KT 9999 FEW002 15/12 Q1014
過去の天気等 Google飛行場航空写真 Wunderground天気予報

過去48時間のMETAR

飛行場予報(TAF)
発表時間: 6/29 08:09 JST (6/28 23:09 UTC)
予報対象時間: 29日9時 JST ~ 30日15時 JST
風向・風速南 6m/s
視程10km以上
少しの雲 雲底高度 90m
全天の8割程度の雲 雲底高度 150m
29日9時 JST ~ 29日11時 JST に徐々に
少しの雲 雲底高度 90m
全天の4割程度の雲 雲底高度 460m
29日15時 JST ~ 29日18時 JST に一時的に
少しの雲 雲底高度 30m
全天の8割程度の雲 雲底高度 120m
29日18時 JST ~ 30日6時 JST に一時的に
視程700m
天気現象
全天を覆う雲 鉛直視程 30m
30日6時 JST ~ 30日9時 JST に一時的に
視程1,500m
天気現象もや
少しの雲 雲底高度 30m
全天の8割程度の雲 雲底高度 90m
TAF RJCK 282309Z 2900/3006 18011KT 9999 FEW003 BKN005
BECMG 2900/2902 FEW003 SCT015
TEMPO 2906/2909 FEW001 BKN004
TEMPO 2909/2921 0700 FG VV001
TEMPO 2921/3000 1500 BR FEW001 BKN003
日本の空港のMETAR・TAFへのリンク

RJTT 東京国際空港
RJAA 新東京国際空港
RJBB 関西国際空港
RJOO 大阪空港
RJGG 中部国際空港
RJCC 新千歳空港
RJFF 福岡空港
ROAH 那覇空港


RJEC 旭川空港
RJCH 函館空港
RJCK 釧路空港
RJCM 女満別空港
RJCB 帯広空港
RJSA 青森空港
RJSS 仙台空港
RJSK 秋田空港
RJSF 福島空港
RJAH 茨城空港
RJSN 新潟空港
RJNT 富山空港
RJNK 小松飛行場
RJNS 静岡空港
RJOH 美保飛行場
RJOC 出雲空港
RJOB 岡山空港
RJOA 広島空港
RJOI 岩国飛行場
RJOT 高松空港
RJOM 松山空港
RJOK 高知空港
RJFR 北九州空港
RJFT 熊本空港
RJFU 長崎空港
RJFS 佐賀空港
RJFO 大分空港
RJFM 宮崎空港
RJFK 鹿児島空港
ROIG 石垣島空港
RJTY 横田飛行場
ROTM 普天間飛行場
RODN 嘉手納飛行場